sensor_id;sensor_type;location;lat;lon;timestamp;temperature;humidity
56046;DHT22;41913;51.030;3.706;2023-05-14T00:01:45;21.90;89.10
56046;DHT22;41913;51.030;3.706;2023-05-14T00:04:11;21.90;89.10
56046;DHT22;41913;51.030;3.706;2023-05-14T00:06:39;21.90;89.10
56046;DHT22;41913;51.030;3.706;2023-05-14T00:09:05;21.90;89.00
56046;DHT22;41913;51.030;3.706;2023-05-14T00:11:30;21.90;88.80
56046;DHT22;41913;51.030;3.706;2023-05-14T00:13:58;21.90;88.80
56046;DHT22;41913;51.030;3.706;2023-05-14T00:16:24;21.90;88.70
56046;DHT22;41913;51.030;3.706;2023-05-14T00:18:53;21.80;88.60
56046;DHT22;41913;51.030;3.706;2023-05-14T00:21:20;21.90;88.70
56046;DHT22;41913;51.030;3.706;2023-05-14T00:23:46;21.90;88.70
56046;DHT22;41913;51.030;3.706;2023-05-14T00:26:14;21.90;88.70
56046;DHT22;41913;51.030;3.706;2023-05-14T00:28:43;21.90;88.70
56046;DHT22;41913;51.030;3.706;2023-05-14T00:31:14;21.90;88.70
56046;DHT22;41913;51.030;3.706;2023-05-14T00:33:41;21.90;88.80
56046;DHT22;41913;51.030;3.706;2023-05-14T00:36:14;21.90;88.70
56046;DHT22;41913;51.030;3.706;2023-05-14T00:38:46;21.80;88.70
56046;DHT22;41913;51.030;3.706;2023-05-14T00:41:14;21.80;88.70
56046;DHT22;41913;51.030;3.706;2023-05-14T00:43:43;21.80;88.70
56046;DHT22;41913;51.030;3.706;2023-05-14T00:46:11;21.80;88.70
56046;DHT22;41913;51.030;3.706;2023-05-14T00:48:44;21.80;88.70
56046;DHT22;41913;51.030;3.706;2023-05-14T00:51:14;21.80;88.80
56046;DHT22;41913;51.030;3.706;2023-05-14T00:53:40;21.80;88.70
56046;DHT22;41913;51.030;3.706;2023-05-14T00:56:08;21.80;88.60
56046;DHT22;41913;51.030;3.706;2023-05-14T00:58:37;21.80;88.60
56046;DHT22;41913;51.030;3.706;2023-05-14T01:01:08;21.80;88.60
56046;DHT22;41913;51.030;3.706;2023-05-14T01:03:40;21.80;88.50
56046;DHT22;41913;51.030;3.706;2023-05-14T01:09:14;21.80;88.50
56046;DHT22;41913;51.030;3.706;2023-05-14T01:11:51;21.80;88.40
56046;DHT22;41913;51.030;3.706;2023-05-14T01:16:58;21.70;88.40
56046;DHT22;41913;51.030;3.706;2023-05-14T01:19:47;21.80;88.40
56046;DHT22;41913;51.030;3.706;2023-05-14T01:22:16;21.80;88.40
56046;DHT22;41913;51.030;3.706;2023-05-14T01:24:45;21.80;88.50
56046;DHT22;41913;51.030;3.706;2023-05-14T01:32:38;21.70;88.40
56046;DHT22;41913;51.030;3.706;2023-05-14T01:35:07;21.80;88.60
56046;DHT22;41913;51.030;3.706;2023-05-14T01:37:35;21.80;88.50
56046;DHT22;41913;51.030;3.706;2023-05-14T01:40:03;21.80;88.50
56046;DHT22;41913;51.030;3.706;2023-05-14T01:42:29;21.80;88.40
56046;DHT22;41913;51.030;3.706;2023-05-14T01:44:58;21.80;88.50
56046;DHT22;41913;51.030;3.706;2023-05-14T01:47:30;21.80;88.50
56046;DHT22;41913;51.030;3.706;2023-05-14T01:49:58;21.80;88.40
56046;DHT22;41913;51.030;3.706;2023-05-14T01:52:34;21.80;88.40
56046;DHT22;41913;51.030;3.706;2023-05-14T01:55:00;21.70;88.30
56046;DHT22;41913;51.030;3.706;2023-05-14T01:57:28;21.80;88.30
56046;DHT22;41913;51.030;3.706;2023-05-14T01:59:54;21.80;88.30
56046;DHT22;41913;51.030;3.706;2023-05-14T02:02:23;21.70;88.20
56046;DHT22;41913;51.030;3.706;2023-05-14T02:04:49;21.70;88.20
56046;DHT22;41913;51.030;3.706;2023-05-14T02:07:15;21.70;88.30
56046;DHT22;41913;51.030;3.706;2023-05-14T02:09:42;21.70;88.20
56046;DHT22;41913;51.030;3.706;2023-05-14T02:12:09;21.70;88.20
56046;DHT22;41913;51.030;3.706;2023-05-14T02:14:36;21.70;88.20
56046;DHT22;41913;51.030;3.706;2023-05-14T02:17:08;21.70;88.20
56046;DHT22;41913;51.030;3.706;2023-05-14T02:19:33;21.70;88.20
56046;DHT22;41913;51.030;3.706;2023-05-14T02:22:00;21.70;88.10
56046;DHT22;41913;51.030;3.706;2023-05-14T02:24:29;21.70;88.10
56046;DHT22;41913;51.030;3.706;2023-05-14T02:26:56;21.70;88.10
56046;DHT22;41913;51.030;3.706;2023-05-14T02:29:26;21.70;88.10
56046;DHT22;41913;51.030;3.706;2023-05-14T02:31:51;21.70;88.10
56046;DHT22;41913;51.030;3.706;2023-05-14T02:34:20;21.70;88.10
56046;DHT22;41913;51.030;3.706;2023-05-14T02:36:46;21.70;88.10
56046;DHT22;41913;51.030;3.706;2023-05-14T02:39:14;21.70;88.10
56046;DHT22;41913;51.030;3.706;2023-05-14T02:41:45;21.70;88.10
56046;DHT22;41913;51.030;3.706;2023-05-14T02:44:11;21.70;88.00
56046;DHT22;41913;51.030;3.706;2023-05-14T02:46:38;21.70;88.00
56046;DHT22;41913;51.030;3.706;2023-05-14T02:49:04;21.70;88.00
56046;DHT22;41913;51.030;3.706;2023-05-14T02:51:30;21.70;88.00
56046;DHT22;41913;51.030;3.706;2023-05-14T02:53:55;21.70;88.00
56046;DHT22;41913;51.030;3.706;2023-05-14T02:56:24;21.70;88.00
56046;DHT22;41913;51.030;3.706;2023-05-14T02:58:51;21.70;88.00
56046;DHT22;41913;51.030;3.706;2023-05-14T03:01:16;21.70;88.00
56046;DHT22;41913;51.030;3.706;2023-05-14T03:03:44;21.70;88.10
56046;DHT22;41913;51.030;3.706;2023-05-14T03:06:10;21.70;88.00
56046;DHT22;41913;51.030;3.706;2023-05-14T03:08:37;21.70;88.00
56046;DHT22;41913;51.030;3.706;2023-05-14T03:11:04;21.70;88.00
56046;DHT22;41913;51.030;3.706;2023-05-14T03:13:32;21.70;88.00
56046;DHT22;41913;51.030;3.706;2023-05-14T03:15:58;21.70;88.10
56046;DHT22;41913;51.030;3.706;2023-05-14T03:18:24;21.60;88.00
56046;DHT22;41913;51.030;3.706;2023-05-14T03:20:49;21.70;88.00
56046;DHT22;41913;51.030;3.706;2023-05-14T03:23:15;21.70;88.10
56046;DHT22;41913;51.030;3.706;2023-05-14T03:25:41;21.70;88.10
56046;DHT22;41913;51.030;3.706;2023-05-14T03:28:12;21.60;88.00
56046;DHT22;41913;51.030;3.706;2023-05-14T03:30:38;21.60;88.00
56046;DHT22;41913;51.030;3.706;2023-05-14T03:33:04;21.70;88.10
56046;DHT22;41913;51.030;3.706;2023-05-14T03:35:30;21.70;88.10
56046;DHT22;41913;51.030;3.706;2023-05-14T03:37:58;21.60;88.10
56046;DHT22;41913;51.030;3.706;2023-05-14T03:40:24;21.70;88.10
56046;DHT22;41913;51.030;3.706;2023-05-14T03:42:50;21.70;88.10
56046;DHT22;41913;51.030;3.706;2023-05-14T03:45:16;21.60;88.10
56046;DHT22;41913;51.030;3.706;2023-05-14T03:47:42;21.60;88.10
56046;DHT22;41913;51.030;3.706;2023-05-14T03:50:14;21.60;88.10
56046;DHT22;41913;51.030;3.706;2023-05-14T03:52:40;21.60;88.10
56046;DHT22;41913;51.030;3.706;2023-05-14T03:55:06;21.60;88.10
56046;DHT22;41913;51.030;3.706;2023-05-14T03:57:32;21.60;88.10
56046;DHT22;41913;51.030;3.706;2023-05-14T03:59:57;21.60;88.10
56046;DHT22;41913;51.030;3.706;2023-05-14T04:02:23;21.60;88.10
56046;DHT22;41913;51.030;3.706;2023-05-14T04:04:49;21.60;88.20
56046;DHT22;41913;51.030;3.706;2023-05-14T04:07:20;21.60;88.20
56046;DHT22;41913;51.030;3.706;2023-05-14T04:09:52;21.60;88.10
56046;DHT22;41913;51.030;3.706;2023-05-14T04:12:18;21.60;88.10
56046;DHT22;41913;51.030;3.706;2023-05-14T04:14:44;21.60;88.20
56046;DHT22;41913;51.030;3.706;2023-05-14T04:17:09;21.60;88.10
56046;DHT22;41913;51.030;3.706;2023-05-14T04:19:38;21.60;88.10
56046;DHT22;41913;51.030;3.706;2023-05-14T04:22:05;21.60;88.10
56046;DHT22;41913;51.030;3.706;2023-05-14T04:24:36;21.60;88.10
56046;DHT22;41913;51.030;3.706;2023-05-14T04:27:04;21.60;88.10
56046;DHT22;41913;51.030;3.706;2023-05-14T04:29:34;21.60;88.10
56046;DHT22;41913;51.030;3.706;2023-05-14T04:32:00;21.60;88.10
56046;DHT22;41913;51.030;3.706;2023-05-14T04:34:31;21.60;88.10
56046;DHT22;41913;51.030;3.706;2023-05-14T04:36:59;21.60;88.10
56046;DHT22;41913;51.030;3.706;2023-05-14T04:39:25;21.60;88.10
56046;DHT22;41913;51.030;3.706;2023-05-14T04:41:50;21.60;88.10
56046;DHT22;41913;51.030;3.706;2023-05-14T04:44:16;21.60;88.00
56046;DHT22;41913;51.030;3.706;2023-05-14T04:46:48;21.60;88.00
56046;DHT22;41913;51.030;3.706;2023-05-14T04:49:15;21.60;88.00
56046;DHT22;41913;51.030;3.706;2023-05-14T04:51:41;21.60;88.00
56046;DHT22;41913;51.030;3.706;2023-05-14T04:54:07;21.60;88.00
56046;DHT22;41913;51.030;3.706;2023-05-14T04:56:33;21.60;88.00
56046;DHT22;41913;51.030;3.706;2023-05-14T04:58:58;21.60;88.00
56046;DHT22;41913;51.030;3.706;2023-05-14T05:01:24;21.60;88.00
56046;DHT22;41913;51.030;3.706;2023-05-14T05:03:50;21.50;87.90
56046;DHT22;41913;51.030;3.706;2023-05-14T05:06:17;21.60;87.90
56046;DHT22;41913;51.030;3.706;2023-05-14T05:08:44;21.60;87.90
56046;DHT22;41913;51.030;3.706;2023-05-14T05:11:10;21.50;87.90
56046;DHT22;41913;51.030;3.706;2023-05-14T05:13:36;21.50;87.80
56046;DHT22;41913;51.030;3.706;2023-05-14T05:16:03;21.60;87.90
56046;DHT22;41913;51.030;3.706;2023-05-14T05:18:29;21.50;87.80
56046;DHT22;41913;51.030;3.706;2023-05-14T05:20:56;21.50;87.80
56046;DHT22;41913;51.030;3.706;2023-05-14T05:23:21;21.50;87.80
56046;DHT22;41913;51.030;3.706;2023-05-14T05:25:48;21.50;87.80
56046;DHT22;41913;51.030;3.706;2023-05-14T05:28:15;21.50;87.80
56046;DHT22;41913;51.030;3.706;2023-05-14T05:30:41;21.50;87.80
56046;DHT22;41913;51.030;3.706;2023-05-14T05:33:09;21.50;87.80
56046;DHT22;41913;51.030;3.706;2023-05-14T05:35:37;21.50;87.80
56046;DHT22;41913;51.030;3.706;2023-05-14T05:38:03;21.50;87.70
56046;DHT22;41913;51.030;3.706;2023-05-14T05:40:29;21.50;87.70
56046;DHT22;41913;51.030;3.706;2023-05-14T05:42:54;21.50;87.70
56046;DHT22;41913;51.030;3.706;2023-05-14T05:45:20;21.50;87.70
56046;DHT22;41913;51.030;3.706;2023-05-14T05:47:46;21.50;87.70
56046;DHT22;41913;51.030;3.706;2023-05-14T05:50:12;21.50;87.70
56046;DHT22;41913;51.030;3.706;2023-05-14T05:52:42;21.50;87.70
56046;DHT22;41913;51.030;3.706;2023-05-14T05:55:14;21.50;87.70
56046;DHT22;41913;51.030;3.706;2023-05-14T05:57:45;21.50;87.70
56046;DHT22;41913;51.030;3.706;2023-05-14T06:00:11;21.50;87.60
56046;DHT22;41913;51.030;3.706;2023-05-14T06:02:39;21.50;87.60
56046;DHT22;41913;51.030;3.706;2023-05-14T06:05:06;21.50;87.70
56046;DHT22;41913;51.030;3.706;2023-05-14T06:07:36;21.50;87.70
56046;DHT22;41913;51.030;3.706;2023-05-14T06:10:05;21.50;87.70
56046;DHT22;41913;51.030;3.706;2023-05-14T06:12:34;21.50;87.60
56046;DHT22;41913;51.030;3.706;2023-05-14T06:14:59;21.50;87.60
56046;DHT22;41913;51.030;3.706;2023-05-14T06:17:27;21.50;87.60
56046;DHT22;41913;51.030;3.706;2023-05-14T06:19:53;21.50;87.60
56046;DHT22;41913;51.030;3.706;2023-05-14T06:22:19;21.50;87.60
56046;DHT22;41913;51.030;3.706;2023-05-14T06:24:46;21.50;87.60
56046;DHT22;41913;51.030;3.706;2023-05-14T06:27:12;21.50;87.60
56046;DHT22;41913;51.030;3.706;2023-05-14T06:29:39;21.50;87.60
56046;DHT22;41913;51.030;3.706;2023-05-14T06:32:06;21.50;87.60
56046;DHT22;41913;51.030;3.706;2023-05-14T06:34:32;21.40;87.50
56046;DHT22;41913;51.030;3.706;2023-05-14T06:36:58;21.50;87.50
56046;DHT22;41913;51.030;3.706;2023-05-14T06:39:23;21.50;88.10
56046;DHT22;41913;51.030;3.706;2023-05-14T06:41:50;21.40;87.60
56046;DHT22;41913;51.030;3.706;2023-05-14T06:44:18;21.50;87.70
56046;DHT22;41913;51.030;3.706;2023-05-14T06:46:44;21.50;87.70
56046;DHT22;41913;51.030;3.706;2023-05-14T06:49:09;21.50;87.70
56046;DHT22;41913;51.030;3.706;2023-05-14T06:51:38;21.50;87.80
56046;DHT22;41913;51.030;3.706;2023-05-14T06:54:05;21.50;87.80
56046;DHT22;41913;51.030;3.706;2023-05-14T06:56:30;21.50;87.80
56046;DHT22;41913;51.030;3.706;2023-05-14T06:58:56;21.50;87.90
56046;DHT22;41913;51.030;3.706;2023-05-14T07:01:23;21.50;87.90
56046;DHT22;41913;51.030;3.706;2023-05-14T07:03:48;21.40;87.80
56046;DHT22;41913;51.030;3.706;2023-05-14T07:06:14;21.50;87.80
56046;DHT22;41913;51.030;3.706;2023-05-14T07:08:40;21.50;87.80
56046;DHT22;41913;51.030;3.706;2023-05-14T07:11:06;21.50;87.60
56046;DHT22;41913;51.030;3.706;2023-05-14T07:13:32;21.50;87.60
56046;DHT22;41913;51.030;3.706;2023-05-14T07:15:58;21.50;88.10
56046;DHT22;41913;51.030;3.706;2023-05-14T07:18:25;21.60;88.80
56046;DHT22;41913;51.030;3.706;2023-05-14T07:20:51;21.60;88.90
56046;DHT22;41913;51.030;3.706;2023-05-14T07:23:17;21.60;88.30
56046;DHT22;41913;51.030;3.706;2023-05-14T07:25:43;21.60;87.80
56046;DHT22;41913;51.030;3.706;2023-05-14T07:28:09;21.60;87.60
56046;DHT22;41913;51.030;3.706;2023-05-14T07:30:35;21.60;87.50
56046;DHT22;41913;51.030;3.706;2023-05-14T07:33:03;21.60;87.40
56046;DHT22;41913;51.030;3.706;2023-05-14T07:35:28;21.60;87.40
56046;DHT22;41913;51.030;3.706;2023-05-14T07:37:54;21.70;87.50
56046;DHT22;41913;51.030;3.706;2023-05-14T07:40:26;21.70;87.40
56046;DHT22;41913;51.030;3.706;2023-05-14T07:42:54;21.60;87.20
56046;DHT22;41913;51.030;3.706;2023-05-14T07:45:20;21.60;87.20
56046;DHT22;41913;51.030;3.706;2023-05-14T07:47:47;21.70;87.20
56046;DHT22;41913;51.030;3.706;2023-05-14T07:50:19;21.60;87.00
56046;DHT22;41913;51.030;3.706;2023-05-14T07:52:50;21.70;87.00
56046;DHT22;41913;51.030;3.706;2023-05-14T07:55:17;21.60;86.90
56046;DHT22;41913;51.030;3.706;2023-05-14T07:57:43;21.70;86.90
56046;DHT22;41913;51.030;3.706;2023-05-14T08:00:12;21.70;86.90
56046;DHT22;41913;51.030;3.706;2023-05-14T08:02:38;21.70;86.80
56046;DHT22;41913;51.030;3.706;2023-05-14T08:05:04;21.70;86.70
56046;DHT22;41913;51.030;3.706;2023-05-14T08:07:32;21.60;86.60
56046;DHT22;41913;51.030;3.706;2023-05-14T08:09:59;21.60;86.50
56046;DHT22;41913;51.030;3.706;2023-05-14T08:12:25;21.60;86.50
56046;DHT22;41913;51.030;3.706;2023-05-14T08:14:51;21.60;86.40
56046;DHT22;41913;51.030;3.706;2023-05-14T08:17:17;21.60;86.40
56046;DHT22;41913;51.030;3.706;2023-05-14T08:19:43;21.60;86.60
56046;DHT22;41913;51.030;3.706;2023-05-14T08:22:08;21.60;86.70
56046;DHT22;41913;51.030;3.706;2023-05-14T08:24:34;21.60;87.20
56046;DHT22;41913;51.030;3.706;2023-05-14T08:27:00;21.60;87.30
56046;DHT22;41913;51.030;3.706;2023-05-14T08:29:26;21.70;87.30
56046;DHT22;41913;51.030;3.706;2023-05-14T08:31:52;21.70;87.30
56046;DHT22;41913;51.030;3.706;2023-05-14T08:34:18;21.70;87.20
56046;DHT22;41913;51.030;3.706;2023-05-14T08:36:45;21.70;87.10
56046;DHT22;41913;51.030;3.706;2023-05-14T08:39:12;21.70;87.20
56046;DHT22;41913;51.030;3.706;2023-05-14T08:41:39;21.70;87.40
56046;DHT22;41913;51.030;3.706;2023-05-14T08:44:18;21.70;87.60
56046;DHT22;41913;51.030;3.706;2023-05-14T08:46:44;21.70;87.80
56046;DHT22;41913;51.030;3.706;2023-05-14T08:51:55;21.70;88.30
56046;DHT22;41913;51.030;3.706;2023-05-14T08:54:21;21.70;88.10
56046;DHT22;41913;51.030;3.706;2023-05-14T08:56:50;21.70;88.10
56046;DHT22;41913;51.030;3.706;2023-05-14T08:59:16;21.70;88.00
56046;DHT22;41913;51.030;3.706;2023-05-14T09:02:02;21.70;87.90
56046;DHT22;41913;51.030;3.706;2023-05-14T09:04:30;21.70;87.80
56046;DHT22;41913;51.030;3.706;2023-05-14T09:06:59;21.70;87.60
56046;DHT22;41913;51.030;3.706;2023-05-14T09:09:26;21.70;87.40
56046;DHT22;41913;51.030;3.706;2023-05-14T09:11:53;21.70;87.20
56046;DHT22;41913;51.030;3.706;2023-05-14T09:14:19;21.70;87.10
56046;DHT22;41913;51.030;3.706;2023-05-14T09:16:46;21.60;87.00
56046;DHT22;41913;51.030;3.706;2023-05-14T09:19:13;21.60;86.80
56046;DHT22;41913;51.030;3.706;2023-05-14T09:21:40;21.60;86.60
56046;DHT22;41913;51.030;3.706;2023-05-14T09:24:06;21.60;86.50
56046;DHT22;41913;51.030;3.706;2023-05-14T09:26:33;21.60;86.40
56046;DHT22;41913;51.030;3.706;2023-05-14T09:29:00;21.60;86.20
56046;DHT22;41913;51.030;3.706;2023-05-14T09:31:32;21.60;86.10
56046;DHT22;41913;51.030;3.706;2023-05-14T09:33:58;21.60;86.00
56046;DHT22;41913;51.030;3.706;2023-05-14T09:36:25;21.60;86.00
56046;DHT22;41913;51.030;3.706;2023-05-14T09:39:02;21.50;85.80
56046;DHT22;41913;51.030;3.706;2023-05-14T09:41:28;21.60;85.90
56046;DHT22;41913;51.030;3.706;2023-05-14T09:43:54;21.50;85.70
56046;DHT22;41913;51.030;3.706;2023-05-14T09:46:22;21.50;85.70
56046;DHT22;41913;51.030;3.706;2023-05-14T09:48:49;21.50;85.80
56046;DHT22;41913;51.030;3.706;2023-05-14T09:51:15;21.50;85.80
56046;DHT22;41913;51.030;3.706;2023-05-14T09:53:43;21.50;85.70
56046;DHT22;41913;51.030;3.706;2023-05-14T09:56:09;21.50;85.70
56046;DHT22;41913;51.030;3.706;2023-05-14T09:58:35;21.50;85.80
56046;DHT22;41913;51.030;3.706;2023-05-14T10:01:01;21.50;85.70
56046;DHT22;41913;51.030;3.706;2023-05-14T10:03:29;21.50;85.70
56046;DHT22;41913;51.030;3.706;2023-05-14T10:05:59;21.50;85.70
56046;DHT22;41913;51.030;3.706;2023-05-14T10:08:44;21.50;85.70
56046;DHT22;41913;51.030;3.706;2023-05-14T10:11:35;21.50;85.70
56046;DHT22;41913;51.030;3.706;2023-05-14T10:14:06;21.50;85.70
56046;DHT22;41913;51.030;3.706;2023-05-14T10:16:34;21.50;85.80
56046;DHT22;41913;51.030;3.706;2023-05-14T10:19:08;21.40;85.90
56046;DHT22;41913;51.030;3.706;2023-05-14T10:21:35;21.40;86.00
56046;DHT22;41913;51.030;3.706;2023-05-14T10:24:02;21.40;86.10
56046;DHT22;41913;51.030;3.706;2023-05-14T10:26:30;21.40;86.30
56046;DHT22;41913;51.030;3.706;2023-05-14T10:28:57;21.40;86.40
56046;DHT22;41913;51.030;3.706;2023-05-14T10:31:44;21.40;86.40
56046;DHT22;41913;51.030;3.706;2023-05-14T10:34:43;21.40;86.70
56046;DHT22;41913;51.030;3.706;2023-05-14T10:37:20;21.40;86.70
56046;DHT22;41913;51.030;3.706;2023-05-14T10:39:49;21.40;86.50
56046;DHT22;41913;51.030;3.706;2023-05-14T10:47:17;21.40;86.60
56046;DHT22;41913;51.030;3.706;2023-05-14T10:49:44;21.40;86.60
56046;DHT22;41913;51.030;3.706;2023-05-14T10:52:11;21.40;86.60
56046;DHT22;41913;51.030;3.706;2023-05-14T10:54:37;21.50;86.80
56046;DHT22;41913;51.030;3.706;2023-05-14T10:57:03;21.40;86.70
56046;DHT22;41913;51.030;3.706;2023-05-14T10:59:29;21.40;86.90
56046;DHT22;41913;51.030;3.706;2023-05-14T11:01:57;21.40;86.90
56046;DHT22;41913;51.030;3.706;2023-05-14T11:04:23;21.40;87.00
56046;DHT22;41913;51.030;3.706;2023-05-14T11:06:51;21.50;87.10
56046;DHT22;41913;51.030;3.706;2023-05-14T11:09:20;21.50;87.00
56046;DHT22;41913;51.030;3.706;2023-05-14T11:11:46;21.40;87.50
56046;DHT22;41913;51.030;3.706;2023-05-14T11:14:12;21.50;87.00
56046;DHT22;41913;51.030;3.706;2023-05-14T11:16:39;21.50;87.10
56046;DHT22;41913;51.030;3.706;2023-05-14T11:19:05;21.50;87.10
56046;DHT22;41913;51.030;3.706;2023-05-14T11:21:31;21.50;87.10
56046;DHT22;41913;51.030;3.706;2023-05-14T11:23:59;21.50;87.10
56046;DHT22;41913;51.030;3.706;2023-05-14T11:26:25;21.50;87.10
56046;DHT22;41913;51.030;3.706;2023-05-14T11:28:51;21.40;87.00
56046;DHT22;41913;51.030;3.706;2023-05-14T11:31:17;21.50;87.20
56046;DHT22;41913;51.030;3.706;2023-05-14T11:33:43;21.50;87.20
56046;DHT22;41913;51.030;3.706;2023-05-14T11:36:12;21.50;87.20
56046;DHT22;41913;51.030;3.706;2023-05-14T11:38:48;21.40;87.20
56046;DHT22;41913;51.030;3.706;2023-05-14T11:41:15;21.50;87.30
56046;DHT22;41913;51.030;3.706;2023-05-14T11:43:41;21.50;87.30
56046;DHT22;41913;51.030;3.706;2023-05-14T11:46:07;21.50;87.30
56046;DHT22;41913;51.030;3.706;2023-05-14T11:48:33;21.50;87.30
56046;DHT22;41913;51.030;3.706;2023-05-14T11:50:59;21.50;87.40
56046;DHT22;41913;51.030;3.706;2023-05-14T11:53:29;21.50;87.40
56046;DHT22;41913;51.030;3.706;2023-05-14T11:55:55;21.50;87.40
56046;DHT22;41913;51.030;3.706;2023-05-14T11:58:24;21.50;87.40
56046;DHT22;41913;51.030;3.706;2023-05-14T12:00:51;21.50;87.30
56046;DHT22;41913;51.030;3.706;2023-05-14T12:03:20;21.40;87.30
56046;DHT22;41913;51.030;3.706;2023-05-14T12:05:55;21.50;87.40
56046;DHT22;41913;51.030;3.706;2023-05-14T12:08:28;21.50;87.40
56046;DHT22;41913;51.030;3.706;2023-05-14T12:10:58;21.50;87.50
56046;DHT22;41913;51.030;3.706;2023-05-14T12:13:28;21.40;87.60
56046;DHT22;41913;51.030;3.706;2023-05-14T12:15:58;21.50;87.60
56046;DHT22;41913;51.030;3.706;2023-05-14T12:18:26;21.50;87.60
56046;DHT22;41913;51.030;3.706;2023-05-14T12:20:53;21.50;87.60
56046;DHT22;41913;51.030;3.706;2023-05-14T12:23:28;21.50;87.50
56046;DHT22;41913;51.030;3.706;2023-05-14T12:25:54;21.50;87.50
56046;DHT22;41913;51.030;3.706;2023-05-14T12:28:22;21.50;87.60
56046;DHT22;41913;51.030;3.706;2023-05-14T12:30:54;21.50;87.60
56046;DHT22;41913;51.030;3.706;2023-05-14T12:33:19;21.50;88.20
56046;DHT22;41913;51.030;3.706;2023-05-14T12:35:48;21.50;87.60
56046;DHT22;41913;51.030;3.706;2023-05-14T12:38:14;21.50;87.70
56046;DHT22;41913;51.030;3.706;2023-05-14T12:40:40;21.50;87.80
56046;DHT22;41913;51.030;3.706;2023-05-14T12:43:05;21.50;87.90
56046;DHT22;41913;51.030;3.706;2023-05-14T12:45:31;21.50;87.90
56046;DHT22;41913;51.030;3.706;2023-05-14T12:47:57;21.50;87.80
56046;DHT22;41913;51.030;3.706;2023-05-14T12:50:22;21.50;87.80
56046;DHT22;41913;51.030;3.706;2023-05-14T12:52:48;21.50;87.80
56046;DHT22;41913;51.030;3.706;2023-05-14T12:55:14;21.50;87.80
56046;DHT22;41913;51.030;3.706;2023-05-14T12:57:40;21.50;87.90
56046;DHT22;41913;51.030;3.706;2023-05-14T13:00:07;21.50;87.90
56046;DHT22;41913;51.030;3.706;2023-05-14T13:02:33;21.50;87.90
56046;DHT22;41913;51.030;3.706;2023-05-14T13:04:59;21.50;88.00
56046;DHT22;41913;51.030;3.706;2023-05-14T13:07:27;21.50;87.90
56046;DHT22;41913;51.030;3.706;2023-05-14T13:09:55;21.50;88.40
56046;DHT22;41913;51.030;3.706;2023-05-14T13:12:22;21.50;87.80
56046;DHT22;41913;51.030;3.706;2023-05-14T13:14:47;21.50;87.80
56046;DHT22;41913;51.030;3.706;2023-05-14T13:17:13;21.50;87.70
56046;DHT22;41913;51.030;3.706;2023-05-14T13:19:39;21.50;87.60
56046;DHT22;41913;51.030;3.706;2023-05-14T13:22:05;21.50;87.60
56046;DHT22;41913;51.030;3.706;2023-05-14T13:24:31;21.50;87.60
56046;DHT22;41913;51.030;3.706;2023-05-14T13:26:56;21.50;87.60
56046;DHT22;41913;51.030;3.706;2023-05-14T13:29:22;21.50;87.60
56046;DHT22;41913;51.030;3.706;2023-05-14T13:31:48;21.50;87.60
56046;DHT22;41913;51.030;3.706;2023-05-14T13:34:14;21.50;87.50
56046;DHT22;41913;51.030;3.706;2023-05-14T13:36:40;21.60;87.60
56046;DHT22;41913;51.030;3.706;2023-05-14T13:39:09;21.50;87.60
56046;DHT22;41913;51.030;3.706;2023-05-14T13:41:36;21.60;87.60
56046;DHT22;41913;51.030;3.706;2023-05-14T13:44:02;21.50;87.60
56046;DHT22;41913;51.030;3.706;2023-05-14T13:46:28;21.60;87.60
56046;DHT22;41913;51.030;3.706;2023-05-14T13:48:54;21.50;87.50
56046;DHT22;41913;51.030;3.706;2023-05-14T13:51:20;21.60;87.50
56046;DHT22;41913;51.030;3.706;2023-05-14T13:53:46;21.60;87.60
56046;DHT22;41913;51.030;3.706;2023-05-14T13:56:12;21.60;87.60
56046;DHT22;41913;51.030;3.706;2023-05-14T13:58:37;21.60;87.60
56046;DHT22;41913;51.030;3.706;2023-05-14T14:01:03;21.60;87.50
56046;DHT22;41913;51.030;3.706;2023-05-14T14:03:29;21.60;87.50
56046;DHT22;41913;51.030;3.706;2023-05-14T14:05:55;21.60;87.50
56046;DHT22;41913;51.030;3.706;2023-05-14T14:08:21;21.60;87.50
56046;DHT22;41913;51.030;3.706;2023-05-14T14:10:46;21.60;87.50
56046;DHT22;41913;51.030;3.706;2023-05-14T14:13:12;21.60;87.50
56046;DHT22;41913;51.030;3.706;2023-05-14T14:15:38;21.60;87.50
56046;DHT22;41913;51.030;3.706;2023-05-14T14:18:04;21.60;87.50
56046;DHT22;41913;51.030;3.706;2023-05-14T14:20:30;21.60;87.50
56046;DHT22;41913;51.030;3.706;2023-05-14T14:22:56;21.60;87.50
56046;DHT22;41913;51.030;3.706;2023-05-14T14:25:21;21.60;87.40
56046;DHT22;41913;51.030;3.706;2023-05-14T14:27:47;21.60;87.40
56046;DHT22;41913;51.030;3.706;2023-05-14T14:30:13;21.60;87.40
56046;DHT22;41913;51.030;3.706;2023-05-14T14:32:45;21.60;87.40
56046;DHT22;41913;51.030;3.706;2023-05-14T14:35:13;21.60;87.40
56046;DHT22;41913;51.030;3.706;2023-05-14T14:37:40;21.60;87.40
56046;DHT22;41913;51.030;3.706;2023-05-14T14:40:07;21.60;87.30
56046;DHT22;41913;51.030;3.706;2023-05-14T14:42:34;21.70;87.40
56046;DHT22;41913;51.030;3.706;2023-05-14T14:45:00;21.60;87.30
56046;DHT22;41913;51.030;3.706;2023-05-14T14:47:26;21.70;87.40
56046;DHT22;41913;51.030;3.706;2023-05-14T14:49:51;21.70;87.30
56046;DHT22;41913;51.030;3.706;2023-05-14T14:52:17;21.70;87.30
56046;DHT22;41913;51.030;3.706;2023-05-14T14:54:43;21.60;87.30
56046;DHT22;41913;51.030;3.706;2023-05-14T14:57:09;21.70;87.30
56046;DHT22;41913;51.030;3.706;2023-05-14T14:59:36;21.70;87.30
56046;DHT22;41913;51.030;3.706;2023-05-14T15:02:01;21.70;87.30
56046;DHT22;41913;51.030;3.706;2023-05-14T15:04:27;21.70;87.30
56046;DHT22;41913;51.030;3.706;2023-05-14T15:06:57;21.70;87.20
56046;DHT22;41913;51.030;3.706;2023-05-14T15:09:22;21.70;87.20
56046;DHT22;41913;51.030;3.706;2023-05-14T15:11:48;21.70;87.20
56046;DHT22;41913;51.030;3.706;2023-05-14T15:14:14;21.70;87.20
56046;DHT22;41913;51.030;3.706;2023-05-14T15:16:40;21.70;87.10
56046;DHT22;41913;51.030;3.706;2023-05-14T15:19:06;21.70;87.10
56046;DHT22;41913;51.030;3.706;2023-05-14T15:21:32;21.70;87.10
56046;DHT22;41913;51.030;3.706;2023-05-14T15:23:58;21.70;87.10
56046;DHT22;41913;51.030;3.706;2023-05-14T15:26:24;21.70;87.00
56046;DHT22;41913;51.030;3.706;2023-05-14T15:28:50;21.70;87.60
56046;DHT22;41913;51.030;3.706;2023-05-14T15:31:16;21.70;87.00
56046;DHT22;41913;51.030;3.706;2023-05-14T15:33:42;21.70;87.00
56046;DHT22;41913;51.030;3.706;2023-05-14T15:36:08;21.70;87.00
56046;DHT22;41913;51.030;3.706;2023-05-14T15:38:33;21.70;87.00
56046;DHT22;41913;51.030;3.706;2023-05-14T15:40:59;21.70;87.00
56046;DHT22;41913;51.030;3.706;2023-05-14T15:43:25;21.70;87.00
56046;DHT22;41913;51.030;3.706;2023-05-14T15:45:51;21.70;87.00
56046;DHT22;41913;51.030;3.706;2023-05-14T15:48:16;21.70;87.00
56046;DHT22;41913;51.030;3.706;2023-05-14T15:50:42;21.70;87.00